sensor_id;sensor_type;location;lat;lon;timestamp;temperature;humidity
7846;DHT22;3968;51.424;6.788;2022-09-17T00:00:47;11.80;99.90
7846;DHT22;3968;51.424;6.788;2022-09-17T00:03:14;11.70;99.90
7846;DHT22;3968;51.424;6.788;2022-09-17T00:05:40;11.80;99.90
7846;DHT22;3968;51.424;6.788;2022-09-17T00:08:07;11.80;99.90
7846;DHT22;3968;51.424;6.788;2022-09-17T00:10:38;11.70;99.90
7846;DHT22;3968;51.424;6.788;2022-09-17T00:13:05;11.70;99.90
7846;DHT22;3968;51.424;6.788;2022-09-17T00:15:31;11.80;99.90
7846;DHT22;3968;51.424;6.788;2022-09-17T00:17:57;11.80;99.90
7846;DHT22;3968;51.424;6.788;2022-09-17T00:20:26;11.90;99.90
7846;DHT22;3968;51.424;6.788;2022-09-17T00:22:52;11.90;99.90
7846;DHT22;3968;51.424;6.788;2022-09-17T00:25:18;11.80;99.90
7846;DHT22;3968;51.424;6.788;2022-09-17T00:27:44;11.80;99.90
7846;DHT22;3968;51.424;6.788;2022-09-17T00:30:11;11.80;99.90
7846;DHT22;3968;51.424;6.788;2022-09-17T00:32:37;11.80;99.90
7846;DHT22;3968;51.424;6.788;2022-09-17T00:35:02;11.70;99.90
7846;DHT22;3968;51.424;6.788;2022-09-17T00:37:28;11.70;99.90
7846;DHT22;3968;51.424;6.788;2022-09-17T00:39:54;11.70;99.90
7846;DHT22;3968;51.424;6.788;2022-09-17T00:42:20;11.50;99.90
7846;DHT22;3968;51.424;6.788;2022-09-17T00:44:52;11.50;99.90
7846;DHT22;3968;51.424;6.788;2022-09-17T00:49:54;11.40;99.90
7846;DHT22;3968;51.424;6.788;2022-09-17T00:52:27;11.30;99.90
7846;DHT22;3968;51.424;6.788;2022-09-17T00:54:59;11.30;99.90
7846;DHT22;3968;51.424;6.788;2022-09-17T00:57:25;11.40;99.90
7846;DHT22;3968;51.424;6.788;2022-09-17T00:59:51;11.40;99.90
7846;DHT22;3968;51.424;6.788;2022-09-17T01:02:18;11.50;99.90
7846;DHT22;3968;51.424;6.788;2022-09-17T01:04:44;11.40;99.90
7846;DHT22;3968;51.424;6.788;2022-09-17T01:10:06;11.60;99.90
7846;DHT22;3968;51.424;6.788;2022-09-17T01:12:47;11.50;99.90
7846;DHT22;3968;51.424;6.788;2022-09-17T01:27:32;11.40;99.90
7846;DHT22;3968;51.424;6.788;2022-09-17T01:32:35;11.20;99.90
7846;DHT22;3968;51.424;6.788;2022-09-17T01:38:04;11.20;99.90
7846;DHT22;3968;51.424;6.788;2022-09-17T01:40:48;11.10;99.90
7846;DHT22;3968;51.424;6.788;2022-09-17T01:43:25;11.10;99.90
7846;DHT22;3968;51.424;6.788;2022-09-17T01:46:02;11.10;99.90
7846;DHT22;3968;51.424;6.788;2022-09-17T01:48:36;11.30;99.90
7846;DHT22;3968;51.424;6.788;2022-09-17T01:51:13;11.40;99.90
7846;DHT22;3968;51.424;6.788;2022-09-17T01:53:46;11.40;99.90
7846;DHT22;3968;51.424;6.788;2022-09-17T01:56:15;11.40;99.90
7846;DHT22;3968;51.424;6.788;2022-09-17T01:58:50;11.50;99.90
7846;DHT22;3968;51.424;6.788;2022-09-17T02:01:19;11.50;99.90
7846;DHT22;3968;51.424;6.788;2022-09-17T02:03:55;11.50;99.90
7846;DHT22;3968;51.424;6.788;2022-09-17T02:06:28;11.50;99.90
7846;DHT22;3968;51.424;6.788;2022-09-17T02:09:01;11.50;99.90
7846;DHT22;3968;51.424;6.788;2022-09-17T02:11:31;11.50;99.90
7846;DHT22;3968;51.424;6.788;2022-09-17T02:14:14;11.50;99.90
7846;DHT22;3968;51.424;6.788;2022-09-17T02:16:48;11.40;99.90
7846;DHT22;3968;51.424;6.788;2022-09-17T02:19:22;11.50;99.90
7846;DHT22;3968;51.424;6.788;2022-09-17T02:21:53;11.40;99.90
7846;DHT22;3968;51.424;6.788;2022-09-17T02:24:28;11.40;99.90
7846;DHT22;3968;51.424;6.788;2022-09-17T02:27:51;11.40;99.90
7846;DHT22;3968;51.424;6.788;2022-09-17T02:29:50;11.50;99.90
7846;DHT22;3968;51.424;6.788;2022-09-17T02:32:16;11.40;99.90
7846;DHT22;3968;51.424;6.788;2022-09-17T02:34:41;11.50;99.90
7846;DHT22;3968;51.424;6.788;2022-09-17T02:37:07;11.40;99.90
7846;DHT22;3968;51.424;6.788;2022-09-17T02:39:33;11.50;99.90
7846;DHT22;3968;51.424;6.788;2022-09-17T02:42:53;11.40;99.90
7846;DHT22;3968;51.424;6.788;2022-09-17T02:53:22;11.30;99.90
7846;DHT22;3968;51.424;6.788;2022-09-17T02:56:08;11.30;99.90
7846;DHT22;3968;51.424;6.788;2022-09-17T03:01:28;11.20;99.90
7846;DHT22;3968;51.424;6.788;2022-09-17T03:03:55;11.20;99.90
7846;DHT22;3968;51.424;6.788;2022-09-17T03:06:24;11.30;99.90
7846;DHT22;3968;51.424;6.788;2022-09-17T03:08:51;11.30;99.90
7846;DHT22;3968;51.424;6.788;2022-09-17T03:11:16;11.30;99.90
7846;DHT22;3968;51.424;6.788;2022-09-17T03:13:42;11.40;99.90
7846;DHT22;3968;51.424;6.788;2022-09-17T03:16:08;11.40;99.90
7846;DHT22;3968;51.424;6.788;2022-09-17T03:18:34;11.40;99.90
7846;DHT22;3968;51.424;6.788;2022-09-17T03:20:59;11.40;99.90
7846;DHT22;3968;51.424;6.788;2022-09-17T03:23:25;11.40;99.90
7846;DHT22;3968;51.424;6.788;2022-09-17T03:25:52;11.50;99.90
7846;DHT22;3968;51.424;6.788;2022-09-17T03:28:18;11.60;99.90
7846;DHT22;3968;51.424;6.788;2022-09-17T03:30:44;11.60;99.90
7846;DHT22;3968;51.424;6.788;2022-09-17T03:33:10;11.70;99.90
7846;DHT22;3968;51.424;6.788;2022-09-17T03:35:35;11.70;99.90
7846;DHT22;3968;51.424;6.788;2022-09-17T03:38:01;11.70;99.90
7846;DHT22;3968;51.424;6.788;2022-09-17T03:40:27;11.70;99.90
7846;DHT22;3968;51.424;6.788;2022-09-17T03:42:53;11.70;99.90
7846;DHT22;3968;51.424;6.788;2022-09-17T03:45:18;11.70;99.90
7846;DHT22;3968;51.424;6.788;2022-09-17T03:47:44;11.80;99.90
7846;DHT22;3968;51.424;6.788;2022-09-17T03:50:09;11.70;99.90
7846;DHT22;3968;51.424;6.788;2022-09-17T03:52:35;11.80;99.90
7846;DHT22;3968;51.424;6.788;2022-09-17T03:55:02;11.80;99.90
7846;DHT22;3968;51.424;6.788;2022-09-17T03:57:28;11.80;99.90
7846;DHT22;3968;51.424;6.788;2022-09-17T03:59:53;11.80;99.90
7846;DHT22;3968;51.424;6.788;2022-09-17T04:02:19;11.70;99.90
7846;DHT22;3968;51.424;6.788;2022-09-17T04:04:44;11.70;99.90
7846;DHT22;3968;51.424;6.788;2022-09-17T04:07:10;11.60;99.90
7846;DHT22;3968;51.424;6.788;2022-09-17T04:09:36;11.60;99.90
7846;DHT22;3968;51.424;6.788;2022-09-17T04:12:02;11.60;99.90
7846;DHT22;3968;51.424;6.788;2022-09-17T04:14:27;11.50;99.90
7846;DHT22;3968;51.424;6.788;2022-09-17T04:16:53;11.50;99.90
7846;DHT22;3968;51.424;6.788;2022-09-17T04:19:18;11.60;99.90
7846;DHT22;3968;51.424;6.788;2022-09-17T04:21:44;11.60;99.90
7846;DHT22;3968;51.424;6.788;2022-09-17T04:24:10;11.60;99.90
7846;DHT22;3968;51.424;6.788;2022-09-17T04:26:35;11.60;99.90
7846;DHT22;3968;51.424;6.788;2022-09-17T04:29:01;11.50;99.90
7846;DHT22;3968;51.424;6.788;2022-09-17T04:31:26;11.50;99.90
7846;DHT22;3968;51.424;6.788;2022-09-17T04:33:52;11.50;99.90
7846;DHT22;3968;51.424;6.788;2022-09-17T04:36:18;11.60;99.90
7846;DHT22;3968;51.424;6.788;2022-09-17T04:38:47;11.60;99.90
7846;DHT22;3968;51.424;6.788;2022-09-17T04:41:12;11.50;99.90
7846;DHT22;3968;51.424;6.788;2022-09-17T04:43:38;11.40;99.90
7846;DHT22;3968;51.424;6.788;2022-09-17T04:46:04;11.50;99.90
7846;DHT22;3968;51.424;6.788;2022-09-17T04:48:29;11.50;99.90
7846;DHT22;3968;51.424;6.788;2022-09-17T04:50:55;11.50;99.90
7846;DHT22;3968;51.424;6.788;2022-09-17T04:53:21;11.40;99.90
7846;DHT22;3968;51.424;6.788;2022-09-17T04:55:46;11.40;99.90
7846;DHT22;3968;51.424;6.788;2022-09-17T04:58:12;11.30;99.90
7846;DHT22;3968;51.424;6.788;2022-09-17T05:00:37;11.30;99.90
7846;DHT22;3968;51.424;6.788;2022-09-17T05:03:03;11.20;99.90
7846;DHT22;3968;51.424;6.788;2022-09-17T05:05:29;11.10;99.90
7846;DHT22;3968;51.424;6.788;2022-09-17T05:07:54;11.10;99.90
7846;DHT22;3968;51.424;6.788;2022-09-17T05:10:21;11.10;99.90
7846;DHT22;3968;51.424;6.788;2022-09-17T05:12:48;11.10;99.90
7846;DHT22;3968;51.424;6.788;2022-09-17T05:15:15;11.00;99.90
7846;DHT22;3968;51.424;6.788;2022-09-17T05:17:41;11.00;99.90
7846;DHT22;3968;51.424;6.788;2022-09-17T05:20:06;11.00;99.90
7846;DHT22;3968;51.424;6.788;2022-09-17T05:22:32;11.00;99.90
7846;DHT22;3968;51.424;6.788;2022-09-17T05:24:58;11.00;99.90
7846;DHT22;3968;51.424;6.788;2022-09-17T05:27:24;11.00;99.90
7846;DHT22;3968;51.424;6.788;2022-09-17T05:29:49;11.00;99.90
7846;DHT22;3968;51.424;6.788;2022-09-17T05:32:15;11.00;99.90
7846;DHT22;3968;51.424;6.788;2022-09-17T05:34:40;11.10;99.90
7846;DHT22;3968;51.424;6.788;2022-09-17T05:37:09;11.20;99.90
7846;DHT22;3968;51.424;6.788;2022-09-17T05:39:35;11.20;99.90
7846;DHT22;3968;51.424;6.788;2022-09-17T05:42:00;11.30;99.90
7846;DHT22;3968;51.424;6.788;2022-09-17T05:44:27;11.30;99.90
7846;DHT22;3968;51.424;6.788;2022-09-17T05:46:53;11.30;99.90
7846;DHT22;3968;51.424;6.788;2022-09-17T05:49:19;11.30;99.90
7846;DHT22;3968;51.424;6.788;2022-09-17T05:51:44;11.30;99.90
7846;DHT22;3968;51.424;6.788;2022-09-17T05:54:10;11.30;99.90
7846;DHT22;3968;51.424;6.788;2022-09-17T05:56:36;11.30;99.90
7846;DHT22;3968;51.424;6.788;2022-09-17T05:59:01;11.30;99.90
7846;DHT22;3968;51.424;6.788;2022-09-17T06:01:27;11.30;99.90
7846;DHT22;3968;51.424;6.788;2022-09-17T06:03:52;11.30;99.90
7846;DHT22;3968;51.424;6.788;2022-09-17T06:06:18;11.20;99.90
7846;DHT22;3968;51.424;6.788;2022-09-17T06:08:44;11.20;99.90
7846;DHT22;3968;51.424;6.788;2022-09-17T06:11:10;11.10;99.90
7846;DHT22;3968;51.424;6.788;2022-09-17T06:13:35;11.10;99.90
7846;DHT22;3968;51.424;6.788;2022-09-17T06:16:02;11.10;99.90
7846;DHT22;3968;51.424;6.788;2022-09-17T06:18:29;11.10;99.90
7846;DHT22;3968;51.424;6.788;2022-09-17T06:20:56;11.10;99.90
7846;DHT22;3968;51.424;6.788;2022-09-17T06:23:22;11.10;99.90
7846;DHT22;3968;51.424;6.788;2022-09-17T06:25:56;11.00;99.90
7846;DHT22;3968;51.424;6.788;2022-09-17T06:28:22;11.00;99.90
7846;DHT22;3968;51.424;6.788;2022-09-17T06:30:48;11.10;99.90
7846;DHT22;3968;51.424;6.788;2022-09-17T06:33:14;11.10;99.90
7846;DHT22;3968;51.424;6.788;2022-09-17T06:35:40;11.10;99.90
7846;DHT22;3968;51.424;6.788;2022-09-17T06:38:06;11.10;99.90
7846;DHT22;3968;51.424;6.788;2022-09-17T06:40:32;11.10;99.90
7846;DHT22;3968;51.424;6.788;2022-09-17T06:42:58;11.20;99.90
7846;DHT22;3968;51.424;6.788;2022-09-17T06:45:25;11.30;99.90
7846;DHT22;3968;51.424;6.788;2022-09-17T06:47:51;11.40;99.90
7846;DHT22;3968;51.424;6.788;2022-09-17T06:50:17;11.50;99.90
7846;DHT22;3968;51.424;6.788;2022-09-17T06:52:50;11.50;99.90
7846;DHT22;3968;51.424;6.788;2022-09-17T06:55:16;11.70;99.90
7846;DHT22;3968;51.424;6.788;2022-09-17T06:57:41;11.70;99.90
7846;DHT22;3968;51.424;6.788;2022-09-17T07:00:08;11.60;99.90
7846;DHT22;3968;51.424;6.788;2022-09-17T07:02:34;11.60;99.90
7846;DHT22;3968;51.424;6.788;2022-09-17T07:05:00;11.50;99.90
7846;DHT22;3968;51.424;6.788;2022-09-17T07:07:26;11.70;99.90
7846;DHT22;3968;51.424;6.788;2022-09-17T07:09:51;11.70;99.90
7846;DHT22;3968;51.424;6.788;2022-09-17T07:12:20;11.90;99.90
7846;DHT22;3968;51.424;6.788;2022-09-17T07:14:46;12.00;99.90
7846;DHT22;3968;51.424;6.788;2022-09-17T07:17:13;12.00;99.90
7846;DHT22;3968;51.424;6.788;2022-09-17T07:19:39;12.20;99.90
7846;DHT22;3968;51.424;6.788;2022-09-17T07:22:04;12.30;99.90
7846;DHT22;3968;51.424;6.788;2022-09-17T07:24:30;12.40;99.90
7846;DHT22;3968;51.424;6.788;2022-09-17T07:26:55;12.50;99.90
7846;DHT22;3968;51.424;6.788;2022-09-17T07:29:21;12.40;99.90
7846;DHT22;3968;51.424;6.788;2022-09-17T07:31:51;12.30;99.90
7846;DHT22;3968;51.424;6.788;2022-09-17T07:34:16;12.20;99.90
7846;DHT22;3968;51.424;6.788;2022-09-17T07:36:43;12.30;99.90
7846;DHT22;3968;51.424;6.788;2022-09-17T07:39:09;12.30;99.90
7846;DHT22;3968;51.424;6.788;2022-09-17T07:41:36;12.50;99.90
7846;DHT22;3968;51.424;6.788;2022-09-17T07:44:02;12.60;99.90
7846;DHT22;3968;51.424;6.788;2022-09-17T07:46:27;12.60;99.90
7846;DHT22;3968;51.424;6.788;2022-09-17T07:48:54;12.70;99.90
7846;DHT22;3968;51.424;6.788;2022-09-17T07:51:22;12.80;99.90
7846;DHT22;3968;51.424;6.788;2022-09-17T07:53:52;13.00;99.90
7846;DHT22;3968;51.424;6.788;2022-09-17T07:56:18;13.20;99.90
7846;DHT22;3968;51.424;6.788;2022-09-17T07:58:44;13.30;99.90
7846;DHT22;3968;51.424;6.788;2022-09-17T08:01:11;13.40;99.90
7846;DHT22;3968;51.424;6.788;2022-09-17T08:03:38;13.40;99.90
7846;DHT22;3968;51.424;6.788;2022-09-17T08:06:10;13.40;99.90
7846;DHT22;3968;51.424;6.788;2022-09-17T08:08:36;13.50;99.90
7846;DHT22;3968;51.424;6.788;2022-09-17T08:11:04;13.60;99.90
7846;DHT22;3968;51.424;6.788;2022-09-17T08:13:30;13.80;99.90
7846;DHT22;3968;51.424;6.788;2022-09-17T08:16:00;13.80;99.90
7846;DHT22;3968;51.424;6.788;2022-09-17T08:18:27;13.90;99.90
7846;DHT22;3968;51.424;6.788;2022-09-17T08:20:56;13.90;99.90
7846;DHT22;3968;51.424;6.788;2022-09-17T08:23:23;14.00;99.90
7846;DHT22;3968;51.424;6.788;2022-09-17T08:25:53;14.20;99.90
7846;DHT22;3968;51.424;6.788;2022-09-17T08:28:19;14.20;99.90
7846;DHT22;3968;51.424;6.788;2022-09-17T08:30:45;14.20;99.90
7846;DHT22;3968;51.424;6.788;2022-09-17T08:33:12;14.40;99.90
7846;DHT22;3968;51.424;6.788;2022-09-17T08:35:38;14.70;99.90
7846;DHT22;3968;51.424;6.788;2022-09-17T08:38:03;15.00;99.90
7846;DHT22;3968;51.424;6.788;2022-09-17T08:40:29;15.10;99.90
7846;DHT22;3968;51.424;6.788;2022-09-17T08:42:59;15.90;99.90
7846;DHT22;3968;51.424;6.788;2022-09-17T08:45:27;16.50;99.90
7846;DHT22;3968;51.424;6.788;2022-09-17T08:48:03;17.30;99.90
7846;DHT22;3968;51.424;6.788;2022-09-17T08:50:36;18.70;99.90
7846;DHT22;3968;51.424;6.788;2022-09-17T08:55:59;19.60;99.90
7846;DHT22;3968;51.424;6.788;2022-09-17T09:06:14;20.60;99.90
7846;DHT22;3968;51.424;6.788;2022-09-17T09:12:01;21.00;99.90
7846;DHT22;3968;51.424;6.788;2022-09-17T09:14:34;20.10;99.10
7846;DHT22;3968;51.424;6.788;2022-09-17T09:17:06;18.70;99.90
7846;DHT22;3968;51.424;6.788;2022-09-17T09:19:43;19.40;99.90
7846;DHT22;3968;51.424;6.788;2022-09-17T09:27:37;20.10;99.90
7846;DHT22;3968;51.424;6.788;2022-09-17T09:30:12;20.30;99.90
7846;DHT22;3968;51.424;6.788;2022-09-17T09:35:35;18.20;99.90
7846;DHT22;3968;51.424;6.788;2022-09-17T09:41:01;19.00;99.90
7846;DHT22;3968;51.424;6.788;2022-09-17T09:43:46;19.20;99.90
7846;DHT22;3968;51.424;6.788;2022-09-17T09:46:33;19.30;99.90
7846;DHT22;3968;51.424;6.788;2022-09-17T09:57:46;17.50;99.90
7846;DHT22;3968;51.424;6.788;2022-09-17T10:00:47;18.00;99.90
7846;DHT22;3968;51.424;6.788;2022-09-17T10:03:22;20.10;99.90
7846;DHT22;3968;51.424;6.788;2022-09-17T10:05:52;21.40;93.60
7846;DHT22;3968;51.424;6.788;2022-09-17T10:08:19;19.60;98.60
7846;DHT22;3968;51.424;6.788;2022-09-17T10:13:32;17.30;99.90
7846;DHT22;3968;51.424;6.788;2022-09-17T10:16:20;17.40;99.90
7846;DHT22;3968;51.424;6.788;2022-09-17T10:18:49;17.80;99.90
7846;DHT22;3968;51.424;6.788;2022-09-17T10:23:56;17.30;99.90
7846;DHT22;3968;51.424;6.788;2022-09-17T10:26:26;16.90;99.90
7846;DHT22;3968;51.424;6.788;2022-09-17T10:28:55;17.80;99.90
7846;DHT22;3968;51.424;6.788;2022-09-17T10:31:21;20.80;99.90
7846;DHT22;3968;51.424;6.788;2022-09-17T10:34:01;21.20;99.90
7846;DHT22;3968;51.424;6.788;2022-09-17T10:36:41;19.00;99.90
7846;DHT22;3968;51.424;6.788;2022-09-17T10:44:22;17.50;99.90
7846;DHT22;3968;51.424;6.788;2022-09-17T10:46:50;21.10;99.90
7846;DHT22;3968;51.424;6.788;2022-09-17T10:49:48;23.90;99.90
7846;DHT22;3968;51.424;6.788;2022-09-17T10:53:04;25.80;94.70
7846;DHT22;3968;51.424;6.788;2022-09-17T10:55:36;28.90;68.80
7846;DHT22;3968;51.424;6.788;2022-09-17T11:13:47;24.70;54.50
7846;DHT22;3968;51.424;6.788;2022-09-17T11:16:27;22.30;63.70
7846;DHT22;3968;51.424;6.788;2022-09-17T11:19:13;20.00;84.60
7846;DHT22;3968;51.424;6.788;2022-09-17T11:21:46;18.50;99.90
7846;DHT22;3968;51.424;6.788;2022-09-17T11:27:34;16.90;99.90
7846;DHT22;3968;51.424;6.788;2022-09-17T11:30:08;16.40;99.90
7846;DHT22;3968;51.424;6.788;2022-09-17T11:35:11;15.90;99.90
7846;DHT22;3968;51.424;6.788;2022-09-17T11:38:02;15.80;99.90
7846;DHT22;3968;51.424;6.788;2022-09-17T11:40:40;15.60;99.90
7846;DHT22;3968;51.424;6.788;2022-09-17T11:43:26;15.30;99.90
7846;DHT22;3968;51.424;6.788;2022-09-17T11:46:28;15.10;99.90
7846;DHT22;3968;51.424;6.788;2022-09-17T11:49:49;15.00;99.90
7846;DHT22;3968;51.424;6.788;2022-09-17T11:52:01;15.10;99.90
7846;DHT22;3968;51.424;6.788;2022-09-17T11:54:59;15.30;99.90
7846;DHT22;3968;51.424;6.788;2022-09-17T11:57:32;15.20;99.90
7846;DHT22;3968;51.424;6.788;2022-09-17T12:00:11;14.80;99.90
7846;DHT22;3968;51.424;6.788;2022-09-17T12:03:13;14.90;99.90
7846;DHT22;3968;51.424;6.788;2022-09-17T12:05:49;14.80;99.90
7846;DHT22;3968;51.424;6.788;2022-09-17T12:08:27;14.60;99.90
7846;DHT22;3968;51.424;6.788;2022-09-17T12:11:10;14.50;99.90
7846;DHT22;3968;51.424;6.788;2022-09-17T12:13:49;14.30;99.90
7846;DHT22;3968;51.424;6.788;2022-09-17T12:19:01;13.70;99.90
7846;DHT22;3968;51.424;6.788;2022-09-17T12:21:47;13.40;99.90
7846;DHT22;3968;51.424;6.788;2022-09-17T12:27:09;13.20;99.90
7846;DHT22;3968;51.424;6.788;2022-09-17T12:41:41;15.10;99.90
7846;DHT22;3968;51.424;6.788;2022-09-17T12:58:01;15.40;99.90
7846;DHT22;3968;51.424;6.788;2022-09-17T13:00:41;16.00;99.90
7846;DHT22;3968;51.424;6.788;2022-09-17T13:03:21;16.80;99.90
7846;DHT22;3968;51.424;6.788;2022-09-17T13:12:00;17.10;99.90
7846;DHT22;3968;51.424;6.788;2022-09-17T13:14:59;16.80;99.90
7846;DHT22;3968;51.424;6.788;2022-09-17T13:18:07;16.80;99.90
7846;DHT22;3968;51.424;6.788;2022-09-17T13:20:31;16.80;99.90
7846;DHT22;3968;51.424;6.788;2022-09-17T13:22:57;16.80;99.90
7846;DHT22;3968;51.424;6.788;2022-09-17T13:25:24;16.80;99.90
7846;DHT22;3968;51.424;6.788;2022-09-17T13:28:03;17.20;99.90
7846;DHT22;3968;51.424;6.788;2022-09-17T13:30:57;17.40;99.90
7846;DHT22;3968;51.424;6.788;2022-09-17T13:33:50;18.00;99.90
7846;DHT22;3968;51.424;6.788;2022-09-17T13:39:02;18.10;99.90
7846;DHT22;3968;51.424;6.788;2022-09-17T13:41:29;17.70;99.90
7846;DHT22;3968;51.424;6.788;2022-09-17T13:43:56;17.10;99.90
7846;DHT22;3968;51.424;6.788;2022-09-17T13:46:26;15.90;99.90
7846;DHT22;3968;51.424;6.788;2022-09-17T13:49:14;14.70;99.90
7846;DHT22;3968;51.424;6.788;2022-09-17T13:51:41;14.00;99.90
7846;DHT22;3968;51.424;6.788;2022-09-17T13:54:09;13.60;99.90
7846;DHT22;3968;51.424;6.788;2022-09-17T13:56:38;13.50;99.90
7846;DHT22;3968;51.424;6.788;2022-09-17T13:59:10;13.70;99.90
7846;DHT22;3968;51.424;6.788;2022-09-17T14:09:54;15.30;99.90
7846;DHT22;3968;51.424;6.788;2022-09-17T14:21:15;15.40;99.90
7846;DHT22;3968;51.424;6.788;2022-09-17T14:23:48;15.40;99.90
7846;DHT22;3968;51.424;6.788;2022-09-17T14:31:46;15.50;99.90
7846;DHT22;3968;51.424;6.788;2022-09-17T14:34:20;15.30;99.90
7846;DHT22;3968;51.424;6.788;2022-09-17T14:36:46;15.30;99.90
7846;DHT22;3968;51.424;6.788;2022-09-17T14:39:21;15.60;99.90
7846;DHT22;3968;51.424;6.788;2022-09-17T14:41:48;15.70;99.90
7846;DHT22;3968;51.424;6.788;2022-09-17T14:44:18;15.60;99.90
7846;DHT22;3968;51.424;6.788;2022-09-17T14:46:58;15.30;99.90
7846;DHT22;3968;51.424;6.788;2022-09-17T14:49:31;15.20;99.90
7846;DHT22;3968;51.424;6.788;2022-09-17T14:51:58;15.30;99.90
7846;DHT22;3968;51.424;6.788;2022-09-17T14:54:27;15.30;99.90
7846;DHT22;3968;51.424;6.788;2022-09-17T14:59:40;15.50;99.90
7846;DHT22;3968;51.424;6.788;2022-09-17T15:02:38;15.60;99.90
7846;DHT22;3968;51.424;6.788;2022-09-17T15:05:29;15.60;99.90
7846;DHT22;3968;51.424;6.788;2022-09-17T15:08:17;15.50;99.90
7846;DHT22;3968;51.424;6.788;2022-09-17T15:11:02;15.60;99.90
7846;DHT22;3968;51.424;6.788;2022-09-17T15:13:30;15.70;99.90
7846;DHT22;3968;51.424;6.788;2022-09-17T15:18:42;16.00;99.90
7846;DHT22;3968;51.424;6.788;2022-09-17T15:21:26;15.90;99.90
7846;DHT22;3968;51.424;6.788;2022-09-17T15:23:58;15.80;99.90
7846;DHT22;3968;51.424;6.788;2022-09-17T15:26:30;15.90;99.90
7846;DHT22;3968;51.424;6.788;2022-09-17T15:28:59;16.10;99.90
7846;DHT22;3968;51.424;6.788;2022-09-17T15:31:27;15.90;99.90
7846;DHT22;3968;51.424;6.788;2022-09-17T15:33:53;15.90;99.90
7846;DHT22;3968;51.424;6.788;2022-09-17T15:38:45;16.00;99.90
7846;DHT22;3968;51.424;6.788;2022-09-17T15:43:48;15.90;99.90
7846;DHT22;3968;51.424;6.788;2022-09-17T15:46:29;15.90;99.90
7846;DHT22;3968;51.424;6.788;2022-09-17T15:49:03;15.90;99.90
7846;DHT22;3968;51.424;6.788;2022-09-17T15:51:48;16.30;99.90
7846;DHT22;3968;51.424;6.788;2022-09-17T15:54:29;16.80;99.90
7846;DHT22;3968;51.424;6.788;2022-09-17T15:57:00;16.80;99.90
7846;DHT22;3968;51.424;6.788;2022-09-17T15:59:27;16.80;99.90
7846;DHT22;3968;51.424;6.788;2022-09-17T16:01:55;16.80;99.90
7846;DHT22;3968;51.424;6.788;2022-09-17T16:04:32;16.50;99.90
7846;DHT22;3968;51.424;6.788;2022-09-17T16:07:40;16.30;99.90
7846;DHT22;3968;51.424;6.788;2022-09-17T16:09:47;15.90;99.90
7846;DHT22;3968;51.424;6.788;2022-09-17T16:12:19;15.50;99.90
7846;DHT22;3968;51.424;6.788;2022-09-17T16:14:46;15.30;99.90
7846;DHT22;3968;51.424;6.788;2022-09-17T16:17:28;15.20;99.90
7846;DHT22;3968;51.424;6.788;2022-09-17T16:19:58;15.20;99.90
7846;DHT22;3968;51.424;6.788;2022-09-17T16:22:24;15.10;99.90
7846;DHT22;3968;51.424;6.788;2022-09-17T16:24:53;15.30;99.90
7846;DHT22;3968;51.424;6.788;2022-09-17T16:27:23;15.50;99.90
7846;DHT22;3968;51.424;6.788;2022-09-17T16:29:50;15.50;99.90
7846;DHT22;3968;51.424;6.788;2022-09-17T16:32:17;15.50;99.90
7846;DHT22;3968;51.424;6.788;2022-09-17T16:34:42;15.50;99.90
7846;DHT22;3968;51.424;6.788;2022-09-17T16:37:09;15.40;99.90
7846;DHT22;3968;51.424;6.788;2022-09-17T16:39:35;15.30;99.90
7846;DHT22;3968;51.424;6.788;2022-09-17T16:42:01;15.10;99.90
7846;DHT22;3968;51.424;6.788;2022-09-17T16:44:26;15.20;99.90
7846;DHT22;3968;51.424;6.788;2022-09-17T16:46:52;15.20;99.90
7846;DHT22;3968;51.424;6.788;2022-09-17T16:49:18;15.20;99.90
7846;DHT22;3968;51.424;6.788;2022-09-17T16:51:43;15.10;99.90
7846;DHT22;3968;51.424;6.788;2022-09-17T16:54:09;15.00;99.90
7846;DHT22;3968;51.424;6.788;2022-09-17T16:56:34;14.80;99.90
7846;DHT22;3968;51.424;6.788;2022-09-17T16:59:00;14.70;99.90
7846;DHT22;3968;51.424;6.788;2022-09-17T17:01:26;14.60;99.90
7846;DHT22;3968;51.424;6.788;2022-09-17T17:03:51;14.50;99.90
7846;DHT22;3968;51.424;6.788;2022-09-17T17:06:21;14.50;99.90
7846;DHT22;3968;51.424;6.788;2022-09-17T17:08:47;14.40;99.90
7846;DHT22;3968;51.424;6.788;2022-09-17T17:11:13;14.40;99.90
7846;DHT22;3968;51.424;6.788;2022-09-17T17:13:40;14.40;99.90
7846;DHT22;3968;51.424;6.788;2022-09-17T17:16:07;14.40;99.90
7846;DHT22;3968;51.424;6.788;2022-09-17T17:18:33;14.40;99.90
7846;DHT22;3968;51.424;6.788;2022-09-17T17:21:06;14.40;99.90
7846;DHT22;3968;51.424;6.788;2022-09-17T17:23:35;14.40;99.90
7846;DHT22;3968;51.424;6.788;2022-09-17T17:26:02;14.40;99.90
7846;DHT22;3968;51.424;6.788;2022-09-17T17:28:32;14.30;99.90
7846;DHT22;3968;51.424;6.788;2022-09-17T17:30:59;14.30;99.90
7846;DHT22;3968;51.424;6.788;2022-09-17T17:33:28;14.30;99.90
7846;DHT22;3968;51.424;6.788;2022-09-17T17:35:54;14.20;99.90
7846;DHT22;3968;51.424;6.788;2022-09-17T17:38:20;14.20;99.90
7846;DHT22;3968;51.424;6.788;2022-09-17T17:40:46;14.10;99.90
7846;DHT22;3968;51.424;6.788;2022-09-17T17:43:12;14.10;99.90
7846;DHT22;3968;51.424;6.788;2022-09-17T17:45:38;14.10;99.90
7846;DHT22;3968;51.424;6.788;2022-09-17T17:48:04;14.10;99.90
7846;DHT22;3968;51.424;6.788;2022-09-17T17:50:31;14.00;99.90
7846;DHT22;3968;51.424;6.788;2022-09-17T17:52:57;14.00;99.90
7846;DHT22;3968;51.424;6.788;2022-09-17T17:55:23;13.90;99.90
7846;DHT22;3968;51.424;6.788;2022-09-17T17:57:56;13.90;99.90
7846;DHT22;3968;51.424;6.788;2022-09-17T18:00:23;13.90;99.90
7846;DHT22;3968;51.424;6.788;2022-09-17T18:02:49;13.90;99.90
7846;DHT22;3968;51.424;6.788;2022-09-17T18:05:15;13.90;99.90
7846;DHT22;3968;51.424;6.788;2022-09-17T18:07:41;13.90;99.90
7846;DHT22;3968;51.424;6.788;2022-09-17T18:10:07;13.90;99.90
7846;DHT22;3968;51.424;6.788;2022-09-17T18:12:32;13.90;99.90
7846;DHT22;3968;51.424;6.788;2022-09-17T18:14:58;14.00;99.90
7846;DHT22;3968;51.424;6.788;2022-09-17T18:17:24;14.00;99.90
7846;DHT22;3968;51.424;6.788;2022-09-17T18:19:52;14.00;99.90
7846;DHT22;3968;51.424;6.788;2022-09-17T18:22:21;14.00;99.90
7846;DHT22;3968;51.424;6.788;2022-09-17T18:24:46;14.00;99.90
7846;DHT22;3968;51.424;6.788;2022-09-17T18:27:12;13.90;99.90
7846;DHT22;3968;51.424;6.788;2022-09-17T18:29:38;14.00;99.90
7846;DHT22;3968;51.424;6.788;2022-09-17T18:32:03;13.90;99.90
7846;DHT22;3968;51.424;6.788;2022-09-17T18:34:29;14.00;99.90
7846;DHT22;3968;51.424;6.788;2022-09-17T18:36:56;14.00;99.90
7846;DHT22;3968;51.424;6.788;2022-09-17T18:39:22;13.90;99.90
7846;DHT22;3968;51.424;6.788;2022-09-17T18:41:48;13.90;99.90
7846;DHT22;3968;51.424;6.788;2022-09-17T18:44:17;14.00;99.90
7846;DHT22;3968;51.424;6.788;2022-09-17T18:46:46;13.90;99.90
7846;DHT22;3968;51.424;6.788;2022-09-17T18:49:13;13.90;99.90
7846;DHT22;3968;51.424;6.788;2022-09-17T18:51:39;13.80;99.90
7846;DHT22;3968;51.424;6.788;2022-09-17T18:54:05;13.80;99.90
7846;DHT22;3968;51.424;6.788;2022-09-17T18:56:31;13.90;99.90
7846;DHT22;3968;51.424;6.788;2022-09-17T18:58:58;13.80;99.90
7846;DHT22;3968;51.424;6.788;2022-09-17T19:01:26;13.80;99.90
7846;DHT22;3968;51.424;6.788;2022-09-17T19:03:53;13.80;99.90
7846;DHT22;3968;51.424;6.788;2022-09-17T19:06:19;13.80;99.90
7846;DHT22;3968;51.424;6.788;2022-09-17T19:08:44;13.80;99.90
7846;DHT22;3968;51.424;6.788;2022-09-17T19:11:11;13.80;99.90
7846;DHT22;3968;51.424;6.788;2022-09-17T19:13:42;13.80;99.90